sensor_id;sensor_type;location;lat;lon;timestamp;temperature;humidity
16180;DHT22;8196;49.428;10.906;2023-03-12T00:01:22;-3.00;99.90
16180;DHT22;8196;49.428;10.906;2023-03-12T00:03:49;-3.00;99.90
16180;DHT22;8196;49.428;10.906;2023-03-12T00:06:17;-3.10;99.90
16180;DHT22;8196;49.428;10.906;2023-03-12T00:08:44;-3.10;99.90
16180;DHT22;8196;49.428;10.906;2023-03-12T00:11:13;-3.30;99.90
16180;DHT22;8196;49.428;10.906;2023-03-12T00:13:40;-3.20;99.90
16180;DHT22;8196;49.428;10.906;2023-03-12T00:16:10;-3.20;99.90
16180;DHT22;8196;49.428;10.906;2023-03-12T00:18:37;-3.20;99.90
16180;DHT22;8196;49.428;10.906;2023-03-12T00:21:05;-3.20;99.90
16180;DHT22;8196;49.428;10.906;2023-03-12T00:23:32;-3.20;99.90
16180;DHT22;8196;49.428;10.906;2023-03-12T00:26:02;-3.30;99.90
16180;DHT22;8196;49.428;10.906;2023-03-12T00:28:29;-3.30;99.90
16180;DHT22;8196;49.428;10.906;2023-03-12T00:30:57;-3.30;99.90
16180;DHT22;8196;49.428;10.906;2023-03-12T00:33:24;-3.30;99.90
16180;DHT22;8196;49.428;10.906;2023-03-12T00:35:52;-3.20;99.90
16180;DHT22;8196;49.428;10.906;2023-03-12T00:38:20;-3.30;99.90
16180;DHT22;8196;49.428;10.906;2023-03-12T00:40:46;-3.30;99.90
16180;DHT22;8196;49.428;10.906;2023-03-12T00:43:13;-3.30;99.90
16180;DHT22;8196;49.428;10.906;2023-03-12T00:45:40;-3.30;99.90
16180;DHT22;8196;49.428;10.906;2023-03-12T00:48:07;-3.40;99.90
16180;DHT22;8196;49.428;10.906;2023-03-12T00:50:34;-3.40;99.90
16180;DHT22;8196;49.428;10.906;2023-03-12T00:53:01;-3.40;99.90
16180;DHT22;8196;49.428;10.906;2023-03-12T00:55:28;-3.40;99.90
16180;DHT22;8196;49.428;10.906;2023-03-12T00:57:54;-3.40;99.90
16180;DHT22;8196;49.428;10.906;2023-03-12T01:00:21;-3.40;99.90
16180;DHT22;8196;49.428;10.906;2023-03-12T01:02:48;-3.40;99.90
16180;DHT22;8196;49.428;10.906;2023-03-12T01:05:15;-3.40;99.90
16180;DHT22;8196;49.428;10.906;2023-03-12T01:07:44;-3.40;99.90
16180;DHT22;8196;49.428;10.906;2023-03-12T01:10:14;-3.40;99.90
16180;DHT22;8196;49.428;10.906;2023-03-12T01:12:41;-3.40;99.90
16180;DHT22;8196;49.428;10.906;2023-03-12T01:15:10;-3.40;99.90
16180;DHT22;8196;49.428;10.906;2023-03-12T01:17:37;-3.40;99.90
16180;DHT22;8196;49.428;10.906;2023-03-12T01:20:05;-3.50;99.90
16180;DHT22;8196;49.428;10.906;2023-03-12T01:22:32;-3.50;99.90
16180;DHT22;8196;49.428;10.906;2023-03-12T01:24:58;-3.50;99.90
16180;DHT22;8196;49.428;10.906;2023-03-12T01:27:25;-3.40;99.90
16180;DHT22;8196;49.428;10.906;2023-03-12T01:29:52;-3.40;99.90
16180;DHT22;8196;49.428;10.906;2023-03-12T01:32:19;-3.40;99.90
16180;DHT22;8196;49.428;10.906;2023-03-12T01:34:45;-3.30;99.90
16180;DHT22;8196;49.428;10.906;2023-03-12T01:37:12;-3.30;99.90
16180;DHT22;8196;49.428;10.906;2023-03-12T01:39:39;-4.80;99.90
16180;DHT22;8196;49.428;10.906;2023-03-12T01:42:06;-3.10;99.90
16180;DHT22;8196;49.428;10.906;2023-03-12T01:44:50;-3.10;99.90
16180;DHT22;8196;49.428;10.906;2023-03-12T01:47:17;-3.10;99.90
16180;DHT22;8196;49.428;10.906;2023-03-12T01:49:44;-3.10;99.90
16180;DHT22;8196;49.428;10.906;2023-03-12T01:52:15;-3.10;99.90
16180;DHT22;8196;49.428;10.906;2023-03-12T01:54:49;-3.20;99.90
16180;DHT22;8196;49.428;10.906;2023-03-12T01:57:22;-3.20;99.90
16180;DHT22;8196;49.428;10.906;2023-03-12T01:59:55;-3.30;99.90
16180;DHT22;8196;49.428;10.906;2023-03-12T02:02:22;-3.30;99.90
16180;DHT22;8196;49.428;10.906;2023-03-12T02:05:02;-3.30;99.90
16180;DHT22;8196;49.428;10.906;2023-03-12T02:07:30;-4.60;99.90
16180;DHT22;8196;49.428;10.906;2023-03-12T02:09:58;-3.30;99.90
16180;DHT22;8196;49.428;10.906;2023-03-12T02:12:25;-3.30;99.90
16180;DHT22;8196;49.428;10.906;2023-03-12T02:14:52;-3.30;99.90
16180;DHT22;8196;49.428;10.906;2023-03-12T02:22:50;-3.10;99.90
16180;DHT22;8196;49.428;10.906;2023-03-12T02:25:38;-3.00;99.90
16180;DHT22;8196;49.428;10.906;2023-03-12T02:28:09;-2.90;99.90
16180;DHT22;8196;49.428;10.906;2023-03-12T02:30:36;-2.80;99.90
16180;DHT22;8196;49.428;10.906;2023-03-12T02:33:06;-2.80;99.90
16180;DHT22;8196;49.428;10.906;2023-03-12T02:35:33;-2.70;99.90
16180;DHT22;8196;49.428;10.906;2023-03-12T02:38:00;-2.70;99.90
16180;DHT22;8196;49.428;10.906;2023-03-12T02:40:33;-2.60;99.90
16180;DHT22;8196;49.428;10.906;2023-03-12T02:43:05;-2.60;99.90
16180;DHT22;8196;49.428;10.906;2023-03-12T02:45:35;-2.50;99.90
16180;DHT22;8196;49.428;10.906;2023-03-12T02:48:07;-2.50;99.90
16180;DHT22;8196;49.428;10.906;2023-03-12T02:50:34;-2.40;99.90
16180;DHT22;8196;49.428;10.906;2023-03-12T02:53:00;-2.40;99.90
16180;DHT22;8196;49.428;10.906;2023-03-12T02:55:27;-2.40;99.90
16180;DHT22;8196;49.428;10.906;2023-03-12T02:57:54;-2.30;99.90
16180;DHT22;8196;49.428;10.906;2023-03-12T03:00:21;-2.30;99.90
16180;DHT22;8196;49.428;10.906;2023-03-12T03:02:47;-2.30;99.90
16180;DHT22;8196;49.428;10.906;2023-03-12T03:05:14;-2.30;99.90
16180;DHT22;8196;49.428;10.906;2023-03-12T03:07:41;-2.30;99.90
16180;DHT22;8196;49.428;10.906;2023-03-12T03:10:08;-2.20;99.90
16180;DHT22;8196;49.428;10.906;2023-03-12T03:12:36;-2.20;99.90
16180;DHT22;8196;49.428;10.906;2023-03-12T03:15:03;-2.10;99.90
16180;DHT22;8196;49.428;10.906;2023-03-12T03:17:30;-2.20;99.90
16180;DHT22;8196;49.428;10.906;2023-03-12T03:19:57;-2.20;99.90
16180;DHT22;8196;49.428;10.906;2023-03-12T03:22:24;-2.20;99.90
16180;DHT22;8196;49.428;10.906;2023-03-12T03:24:52;-2.30;99.90
16180;DHT22;8196;49.428;10.906;2023-03-12T03:27:19;-2.20;99.90
16180;DHT22;8196;49.428;10.906;2023-03-12T03:29:46;-2.20;99.90
16180;DHT22;8196;49.428;10.906;2023-03-12T03:32:13;-2.20;99.90
16180;DHT22;8196;49.428;10.906;2023-03-12T03:34:40;-1.30;99.90
16180;DHT22;8196;49.428;10.906;2023-03-12T03:37:07;-2.10;99.90
16180;DHT22;8196;49.428;10.906;2023-03-12T03:39:33;-2.10;99.90
16180;DHT22;8196;49.428;10.906;2023-03-12T03:42:00;-2.10;99.90
16180;DHT22;8196;49.428;10.906;2023-03-12T03:44:27;-2.10;99.90
16180;DHT22;8196;49.428;10.906;2023-03-12T03:46:53;-2.10;99.90
16180;DHT22;8196;49.428;10.906;2023-03-12T03:49:21;-2.10;99.90
16180;DHT22;8196;49.428;10.906;2023-03-12T03:51:48;-2.10;99.90
16180;DHT22;8196;49.428;10.906;2023-03-12T03:54:17;-2.00;99.90
16180;DHT22;8196;49.428;10.906;2023-03-12T03:56:44;-2.00;99.90
16180;DHT22;8196;49.428;10.906;2023-03-12T03:59:11;-2.00;99.90
16180;DHT22;8196;49.428;10.906;2023-03-12T04:01:38;-2.00;99.90
16180;DHT22;8196;49.428;10.906;2023-03-12T04:04:05;-1.80;99.90
16180;DHT22;8196;49.428;10.906;2023-03-12T04:06:32;-1.90;99.90
16180;DHT22;8196;49.428;10.906;2023-03-12T04:08:59;1.20;99.90
16180;DHT22;8196;49.428;10.906;2023-03-12T04:11:25;-1.90;99.90
16180;DHT22;8196;49.428;10.906;2023-03-12T04:13:52;-1.80;99.90
16180;DHT22;8196;49.428;10.906;2023-03-12T04:16:21;-1.80;99.90
16180;DHT22;8196;49.428;10.906;2023-03-12T04:18:48;-1.80;99.90
16180;DHT22;8196;49.428;10.906;2023-03-12T04:21:14;-1.80;99.90
16180;DHT22;8196;49.428;10.906;2023-03-12T04:23:41;-1.80;99.90
16180;DHT22;8196;49.428;10.906;2023-03-12T04:26:08;-1.80;99.90
16180;DHT22;8196;49.428;10.906;2023-03-12T04:28:35;-1.80;99.90
16180;DHT22;8196;49.428;10.906;2023-03-12T04:31:05;-1.80;99.90
16180;DHT22;8196;49.428;10.906;2023-03-12T04:33:35;-1.80;99.90
16180;DHT22;8196;49.428;10.906;2023-03-12T04:36:02;-1.80;99.90
16180;DHT22;8196;49.428;10.906;2023-03-12T04:41:06;-1.90;99.90
16180;DHT22;8196;49.428;10.906;2023-03-12T04:43:34;-1.90;99.90
16180;DHT22;8196;49.428;10.906;2023-03-12T04:46:01;1.00;99.90
16180;DHT22;8196;49.428;10.906;2023-03-12T04:48:28;-1.90;99.90
16180;DHT22;8196;49.428;10.906;2023-03-12T04:50:56;-1.90;99.90
16180;DHT22;8196;49.428;10.906;2023-03-12T04:53:23;-1.90;99.90
16180;DHT22;8196;49.428;10.906;2023-03-12T04:55:50;-1.90;99.90
16180;DHT22;8196;49.428;10.906;2023-03-12T04:58:18;-1.90;99.90
16180;DHT22;8196;49.428;10.906;2023-03-12T05:00:46;-1.90;99.90
16180;DHT22;8196;49.428;10.906;2023-03-12T05:03:13;-1.90;99.90
16180;DHT22;8196;49.428;10.906;2023-03-12T05:05:40;-1.80;99.90
16180;DHT22;8196;49.428;10.906;2023-03-12T05:08:07;-1.80;99.90
16180;DHT22;8196;49.428;10.906;2023-03-12T05:10:33;-1.80;99.90
16180;DHT22;8196;49.428;10.906;2023-03-12T05:13:00;-1.80;99.90
16180;DHT22;8196;49.428;10.906;2023-03-12T05:15:27;-1.90;99.90
16180;DHT22;8196;49.428;10.906;2023-03-12T05:17:53;-1.90;99.90
16180;DHT22;8196;49.428;10.906;2023-03-12T05:20:20;-1.90;99.90
16180;DHT22;8196;49.428;10.906;2023-03-12T05:22:47;-2.00;99.90
16180;DHT22;8196;49.428;10.906;2023-03-12T05:25:14;-2.00;99.90
16180;DHT22;8196;49.428;10.906;2023-03-12T05:27:41;-2.00;99.90
16180;DHT22;8196;49.428;10.906;2023-03-12T05:30:08;-2.00;99.90
16180;DHT22;8196;49.428;10.906;2023-03-12T05:32:35;-1.90;99.90
16180;DHT22;8196;49.428;10.906;2023-03-12T05:35:02;-1.90;99.90
16180;DHT22;8196;49.428;10.906;2023-03-12T05:37:29;-1.80;99.90
16180;DHT22;8196;49.428;10.906;2023-03-12T05:39:55;-1.70;99.90
16180;DHT22;8196;49.428;10.906;2023-03-12T05:42:23;-1.70;99.90
16180;DHT22;8196;49.428;10.906;2023-03-12T05:44:50;-1.60;99.90
16180;DHT22;8196;49.428;10.906;2023-03-12T05:47:18;-1.60;99.90
16180;DHT22;8196;49.428;10.906;2023-03-12T05:49:44;-1.60;99.90
16180;DHT22;8196;49.428;10.906;2023-03-12T05:52:13;-1.60;99.90
16180;DHT22;8196;49.428;10.906;2023-03-12T05:54:39;-1.60;99.90
16180;DHT22;8196;49.428;10.906;2023-03-12T05:57:06;-1.60;99.90
16180;DHT22;8196;49.428;10.906;2023-03-12T05:59:33;-1.50;99.90
16180;DHT22;8196;49.428;10.906;2023-03-12T06:02:00;-1.30;99.90
16180;DHT22;8196;49.428;10.906;2023-03-12T06:04:27;-1.20;99.90
16180;DHT22;8196;49.428;10.906;2023-03-12T06:06:55;-1.00;99.90
16180;DHT22;8196;49.428;10.906;2023-03-12T06:09:21;-0.90;99.90
16180;DHT22;8196;49.428;10.906;2023-03-12T06:11:48;-0.80;99.90
16180;DHT22;8196;49.428;10.906;2023-03-12T06:14:15;-0.60;99.90
16180;DHT22;8196;49.428;10.906;2023-03-12T06:16:41;-0.60;99.90
16180;DHT22;8196;49.428;10.906;2023-03-12T06:19:10;-0.50;99.90
16180;DHT22;8196;49.428;10.906;2023-03-12T06:21:41;-0.50;99.90
16180;DHT22;8196;49.428;10.906;2023-03-12T06:24:08;-0.40;99.90
16180;DHT22;8196;49.428;10.906;2023-03-12T06:26:35;-0.30;99.90
16180;DHT22;8196;49.428;10.906;2023-03-12T06:29:02;-0.10;99.90
16180;DHT22;8196;49.428;10.906;2023-03-12T06:31:28;-0.10;99.90
16180;DHT22;8196;49.428;10.906;2023-03-12T06:33:55;0.00;99.90
16180;DHT22;8196;49.428;10.906;2023-03-12T06:38:49;0.20;99.90
16180;DHT22;8196;49.428;10.906;2023-03-12T06:41:17;0.30;99.90
16180;DHT22;8196;49.428;10.906;2023-03-12T06:43:45;0.40;99.90
16180;DHT22;8196;49.428;10.906;2023-03-12T06:46:14;0.50;99.90
16180;DHT22;8196;49.428;10.906;2023-03-12T06:48:42;0.60;99.90
16180;DHT22;8196;49.428;10.906;2023-03-12T06:51:13;0.60;99.90
16180;DHT22;8196;49.428;10.906;2023-03-12T06:53:40;0.60;99.90
16180;DHT22;8196;49.428;10.906;2023-03-12T06:56:09;0.50;99.90
16180;DHT22;8196;49.428;10.906;2023-03-12T06:58:36;0.60;99.90
16180;DHT22;8196;49.428;10.906;2023-03-12T07:01:03;0.60;99.90
16180;DHT22;8196;49.428;10.906;2023-03-12T07:03:30;0.70;99.90
16180;DHT22;8196;49.428;10.906;2023-03-12T07:05:57;0.90;99.90
16180;DHT22;8196;49.428;10.906;2023-03-12T07:08:25;1.00;99.90
16180;DHT22;8196;49.428;10.906;2023-03-12T07:10:52;1.00;99.90
16180;DHT22;8196;49.428;10.906;2023-03-12T07:13:18;1.10;99.90
16180;DHT22;8196;49.428;10.906;2023-03-12T07:15:45;1.30;99.90
16180;DHT22;8196;49.428;10.906;2023-03-12T07:18:12;1.50;99.90
16180;DHT22;8196;49.428;10.906;2023-03-12T07:20:41;1.80;99.90
16180;DHT22;8196;49.428;10.906;2023-03-12T07:23:09;2.00;99.90
16180;DHT22;8196;49.428;10.906;2023-03-12T07:25:37;2.20;99.90
16180;DHT22;8196;49.428;10.906;2023-03-12T07:28:05;2.40;99.90
16180;DHT22;8196;49.428;10.906;2023-03-12T07:30:32;2.70;99.90
16180;DHT22;8196;49.428;10.906;2023-03-12T07:33:01;3.00;99.90
16180;DHT22;8196;49.428;10.906;2023-03-12T07:35:28;4.40;99.90
16180;DHT22;8196;49.428;10.906;2023-03-12T07:37:55;3.30;99.90
16180;DHT22;8196;49.428;10.906;2023-03-12T07:40:22;3.30;99.90
16180;DHT22;8196;49.428;10.906;2023-03-12T07:42:50;3.30;99.90
16180;DHT22;8196;49.428;10.906;2023-03-12T07:45:18;3.20;99.90
16180;DHT22;8196;49.428;10.906;2023-03-12T07:47:45;3.20;99.90
16180;DHT22;8196;49.428;10.906;2023-03-12T07:50:12;3.30;99.90
16180;DHT22;8196;49.428;10.906;2023-03-12T07:52:39;3.30;99.90
16180;DHT22;8196;49.428;10.906;2023-03-12T07:55:06;3.30;99.90
16180;DHT22;8196;49.428;10.906;2023-03-12T07:57:34;3.30;99.90
16180;DHT22;8196;49.428;10.906;2023-03-12T08:00:01;3.40;99.90
16180;DHT22;8196;49.428;10.906;2023-03-12T08:02:27;3.50;99.90
16180;DHT22;8196;49.428;10.906;2023-03-12T08:04:54;0.80;99.90
16180;DHT22;8196;49.428;10.906;2023-03-12T08:07:21;3.70;99.90
16180;DHT22;8196;49.428;10.906;2023-03-12T08:09:48;3.80;99.90
16180;DHT22;8196;49.428;10.906;2023-03-12T08:12:15;4.20;99.90
16180;DHT22;8196;49.428;10.906;2023-03-12T08:14:42;4.50;99.90
16180;DHT22;8196;49.428;10.906;2023-03-12T08:17:09;4.70;99.90
16180;DHT22;8196;49.428;10.906;2023-03-12T08:19:37;4.80;99.90
16180;DHT22;8196;49.428;10.906;2023-03-12T08:22:04;4.90;99.90
16180;DHT22;8196;49.428;10.906;2023-03-12T08:24:31;4.90;99.80
16180;DHT22;8196;49.428;10.906;2023-03-12T08:26:58;4.90;99.20
16180;DHT22;8196;49.428;10.906;2023-03-12T08:29:25;4.90;98.90
16180;DHT22;8196;49.428;10.906;2023-03-12T08:31:51;5.10;99.00
16180;DHT22;8196;49.428;10.906;2023-03-12T08:34:30;5.30;97.90
16180;DHT22;8196;49.428;10.906;2023-03-12T08:36:57;5.40;97.30
16180;DHT22;8196;49.428;10.906;2023-03-12T08:39:24;5.60;97.30
16180;DHT22;8196;49.428;10.906;2023-03-12T08:41:51;5.00;96.50
16180;DHT22;8196;49.428;10.906;2023-03-12T08:44:21;5.90;95.80
16180;DHT22;8196;49.428;10.906;2023-03-12T08:46:49;5.90;95.30
16180;DHT22;8196;49.428;10.906;2023-03-12T08:49:16;5.90;95.10
16180;DHT22;8196;49.428;10.906;2023-03-12T08:51:43;5.90;94.80
16180;DHT22;8196;49.428;10.906;2023-03-12T08:54:09;6.00;94.70
16180;DHT22;8196;49.428;10.906;2023-03-12T08:56:36;6.20;94.50
16180;DHT22;8196;49.428;10.906;2023-03-12T08:59:08;6.40;93.70
16180;DHT22;8196;49.428;10.906;2023-03-12T09:01:35;6.60;93.10
16180;DHT22;8196;49.428;10.906;2023-03-12T09:04:03;6.80;92.80
16180;DHT22;8196;49.428;10.906;2023-03-12T09:06:31;7.00;91.80
16180;DHT22;8196;49.428;10.906;2023-03-12T09:08:58;7.10;91.50
16180;DHT22;8196;49.428;10.906;2023-03-12T09:11:32;7.20;91.20
16180;DHT22;8196;49.428;10.906;2023-03-12T09:13:59;7.30;90.40
16180;DHT22;8196;49.428;10.906;2023-03-12T09:16:47;7.60;89.00
16180;DHT22;8196;49.428;10.906;2023-03-12T09:19:14;8.00;86.70
16180;DHT22;8196;49.428;10.906;2023-03-12T09:21:41;8.50;84.20
16180;DHT22;8196;49.428;10.906;2023-03-12T09:24:09;8.80;79.60
16180;DHT22;8196;49.428;10.906;2023-03-12T09:26:36;8.80;76.90
16180;DHT22;8196;49.428;10.906;2023-03-12T09:29:03;8.60;77.20
16180;DHT22;8196;49.428;10.906;2023-03-12T09:31:29;8.50;76.80
16180;DHT22;8196;49.428;10.906;2023-03-12T09:33:58;8.60;78.00
16180;DHT22;8196;49.428;10.906;2023-03-12T09:36:25;8.70;76.30
16180;DHT22;8196;49.428;10.906;2023-03-12T09:38:51;8.70;74.50
16180;DHT22;8196;49.428;10.906;2023-03-12T09:41:22;8.80;74.80
16180;DHT22;8196;49.428;10.906;2023-03-12T09:46:40;8.70;73.50
16180;DHT22;8196;49.428;10.906;2023-03-12T09:52:12;8.20;75.10
16180;DHT22;8196;49.428;10.906;2023-03-12T09:54:51;7.90;76.80
16180;DHT22;8196;49.428;10.906;2023-03-12T09:57:23;7.70;78.50
16180;DHT22;8196;49.428;10.906;2023-03-12T09:59:51;7.60;80.00
16180;DHT22;8196;49.428;10.906;2023-03-12T10:04:57;7.60;80.80
16180;DHT22;8196;49.428;10.906;2023-03-12T10:07:33;7.70;81.20
16180;DHT22;8196;49.428;10.906;2023-03-12T10:13:04;7.80;82.10
16180;DHT22;8196;49.428;10.906;2023-03-12T10:15:55;8.00;82.00
16180;DHT22;8196;49.428;10.906;2023-03-12T10:18:32;7.90;83.10
16180;DHT22;8196;49.428;10.906;2023-03-12T10:21:10;7.90;83.90
16180;DHT22;8196;49.428;10.906;2023-03-12T10:26:38;7.80;86.10
16180;DHT22;8196;49.428;10.906;2023-03-12T10:29:21;7.70;87.40
16180;DHT22;8196;49.428;10.906;2023-03-12T10:34:48;7.50;88.90
16180;DHT22;8196;49.428;10.906;2023-03-12T10:39:49;7.50;90.30
16180;DHT22;8196;49.428;10.906;2023-03-12T10:42:19;7.60;90.50
16180;DHT22;8196;49.428;10.906;2023-03-12T10:44:50;7.60;90.60
16180;DHT22;8196;49.428;10.906;2023-03-12T10:47:40;7.60;91.00
16180;DHT22;8196;49.428;10.906;2023-03-12T10:50:13;7.60;90.80
16180;DHT22;8196;49.428;10.906;2023-03-12T10:52:41;7.50;91.10
16180;DHT22;8196;49.428;10.906;2023-03-12T10:57:52;7.40;92.10
16180;DHT22;8196;49.428;10.906;2023-03-12T11:00:22;7.40;92.20
16180;DHT22;8196;49.428;10.906;2023-03-12T11:03:09;7.50;92.80
16180;DHT22;8196;49.428;10.906;2023-03-12T11:05:48;7.60;92.50
16180;DHT22;8196;49.428;10.906;2023-03-12T11:08:30;7.60;92.40
16180;DHT22;8196;49.428;10.906;2023-03-12T11:10:59;7.70;92.40
16180;DHT22;8196;49.428;10.906;2023-03-12T11:16:01;8.00;91.90
16180;DHT22;8196;49.428;10.906;2023-03-12T11:18:35;8.10;91.70
16180;DHT22;8196;49.428;10.906;2023-03-12T11:23:39;8.10;91.80
16180;DHT22;8196;49.428;10.906;2023-03-12T11:26:11;7.90;92.20
16180;DHT22;8196;49.428;10.906;2023-03-12T11:28:43;7.80;92.40
16180;DHT22;8196;49.428;10.906;2023-03-12T11:31:22;7.80;92.60
16180;DHT22;8196;49.428;10.906;2023-03-12T11:33:51;7.70;93.00
16180;DHT22;8196;49.428;10.906;2023-03-12T11:36:23;7.80;93.20
16180;DHT22;8196;49.428;10.906;2023-03-12T11:39:02;7.90;93.00
16180;DHT22;8196;49.428;10.906;2023-03-12T11:41:45;7.80;92.90
16180;DHT22;8196;49.428;10.906;2023-03-12T11:44:25;7.70;93.30
16180;DHT22;8196;49.428;10.906;2023-03-12T11:47:05;7.60;94.00
16180;DHT22;8196;49.428;10.906;2023-03-12T11:49:45;7.50;94.00
16180;DHT22;8196;49.428;10.906;2023-03-12T11:58:00;7.50;95.30
16180;DHT22;8196;49.428;10.906;2023-03-12T12:00:38;7.60;95.20
16180;DHT22;8196;49.428;10.906;2023-03-12T12:03:21;7.70;95.00
16180;DHT22;8196;49.428;10.906;2023-03-12T12:26:01;7.20;99.90
16180;DHT22;8196;49.428;10.906;2023-03-12T12:28:53;7.20;99.90
16180;DHT22;8196;49.428;10.906;2023-03-12T12:31:38;7.20;99.90
16180;DHT22;8196;49.428;10.906;2023-03-12T12:36:45;7.40;99.90
16180;DHT22;8196;49.428;10.906;2023-03-12T12:39:22;7.20;99.90
16180;DHT22;8196;49.428;10.906;2023-03-12T12:41:56;7.20;99.90
16180;DHT22;8196;49.428;10.906;2023-03-12T12:44:26;7.10;99.90
16180;DHT22;8196;49.428;10.906;2023-03-12T12:46:58;6.90;99.90
16180;DHT22;8196;49.428;10.906;2023-03-12T12:49:41;6.80;99.90
16180;DHT22;8196;49.428;10.906;2023-03-12T12:52:12;6.80;99.90
16180;DHT22;8196;49.428;10.906;2023-03-12T13:02:46;7.00;99.90
16180;DHT22;8196;49.428;10.906;2023-03-12T13:05:24;7.10;99.90
16180;DHT22;8196;49.428;10.906;2023-03-12T13:07:51;7.00;99.90
16180;DHT22;8196;49.428;10.906;2023-03-12T13:13:18;7.10;99.90
16180;DHT22;8196;49.428;10.906;2023-03-12T13:15:46;7.30;99.90
16180;DHT22;8196;49.428;10.906;2023-03-12T13:23:54;7.50;99.90
16180;DHT22;8196;49.428;10.906;2023-03-12T13:26:27;7.60;99.90
16180;DHT22;8196;49.428;10.906;2023-03-12T13:28:59;7.60;99.90
16180;DHT22;8196;49.428;10.906;2023-03-12T13:31:40;7.60;99.90
16180;DHT22;8196;49.428;10.906;2023-03-12T13:36:59;7.50;99.90
16180;DHT22;8196;49.428;10.906;2023-03-12T13:39:32;7.50;99.90
16180;DHT22;8196;49.428;10.906;2023-03-12T13:44:48;7.70;99.90
16180;DHT22;8196;49.428;10.906;2023-03-12T13:49:58;7.70;99.90
16180;DHT22;8196;49.428;10.906;2023-03-12T13:52:32;7.60;99.90
16180;DHT22;8196;49.428;10.906;2023-03-12T13:57:44;7.80;99.90
16180;DHT22;8196;49.428;10.906;2023-03-12T14:02:54;8.20;99.90
16180;DHT22;8196;49.428;10.906;2023-03-12T14:05:22;8.20;99.90
16180;DHT22;8196;49.428;10.906;2023-03-12T14:10:29;8.20;99.90
16180;DHT22;8196;49.428;10.906;2023-03-12T14:13:06;8.30;99.90
16180;DHT22;8196;49.428;10.906;2023-03-12T14:18:17;8.70;99.90
16180;DHT22;8196;49.428;10.906;2023-03-12T14:20:53;8.70;99.90
16180;DHT22;8196;49.428;10.906;2023-03-12T14:23:26;8.70;99.90
16180;DHT22;8196;49.428;10.906;2023-03-12T14:25:58;8.80;99.90
16180;DHT22;8196;49.428;10.906;2023-03-12T14:28:30;9.20;99.90
16180;DHT22;8196;49.428;10.906;2023-03-12T14:31:01;9.10;99.90
16180;DHT22;8196;49.428;10.906;2023-03-12T14:33:43;9.40;99.90
16180;DHT22;8196;49.428;10.906;2023-03-12T14:36:17;9.60;99.90
16180;DHT22;8196;49.428;10.906;2023-03-12T14:38:46;9.70;99.90
16180;DHT22;8196;49.428;10.906;2023-03-12T14:41:15;9.90;99.90
16180;DHT22;8196;49.428;10.906;2023-03-12T14:43:44;10.00;99.90
16180;DHT22;8196;49.428;10.906;2023-03-12T14:46:19;9.90;99.90
16180;DHT22;8196;49.428;10.906;2023-03-12T14:48:48;9.80;99.90
16180;DHT22;8196;49.428;10.906;2023-03-12T14:51:22;9.90;99.90
16180;DHT22;8196;49.428;10.906;2023-03-12T14:53:50;10.00;99.90
16180;DHT22;8196;49.428;10.906;2023-03-12T14:56:23;10.00;99.90
16180;DHT22;8196;49.428;10.906;2023-03-12T14:58:51;10.10;99.90
16180;DHT22;8196;49.428;10.906;2023-03-12T15:01:21;10.20;99.90
16180;DHT22;8196;49.428;10.906;2023-03-12T15:03:54;10.00;99.90
16180;DHT22;8196;49.428;10.906;2023-03-12T15:06:33;10.00;99.90
16180;DHT22;8196;49.428;10.906;2023-03-12T15:09:02;10.00;99.90
16180;DHT22;8196;49.428;10.906;2023-03-12T15:11:32;10.00;99.90
16180;DHT22;8196;49.428;10.906;2023-03-12T15:14:11;9.90;99.90
16180;DHT22;8196;49.428;10.906;2023-03-12T15:16:41;9.90;99.90
16180;DHT22;8196;49.428;10.906;2023-03-12T15:19:12;10.10;99.90
16180;DHT22;8196;49.428;10.906;2023-03-12T15:21:39;10.10;99.90
16180;DHT22;8196;49.428;10.906;2023-03-12T15:24:10;10.30;99.90
16180;DHT22;8196;49.428;10.906;2023-03-12T15:26:39;10.40;99.90
16180;DHT22;8196;49.428;10.906;2023-03-12T15:29:19;10.60;99.90
16180;DHT22;8196;49.428;10.906;2023-03-12T15:31:54;10.60;99.90
16180;DHT22;8196;49.428;10.906;2023-03-12T15:34:37;12.00;99.90
16180;DHT22;8196;49.428;10.906;2023-03-12T15:39:55;10.40;99.90
16180;DHT22;8196;49.428;10.906;2023-03-12T15:42:24;10.30;99.90
16180;DHT22;8196;49.428;10.906;2023-03-12T15:44:55;10.40;99.90
16180;DHT22;8196;49.428;10.906;2023-03-12T15:47:25;10.40;99.90
16180;DHT22;8196;49.428;10.906;2023-03-12T15:49:56;10.50;99.90
16180;DHT22;8196;49.428;10.906;2023-03-12T15:57:46;10.90;99.90
16180;DHT22;8196;49.428;10.906;2023-03-12T16:00:25;11.00;99.90
16180;DHT22;8196;49.428;10.906;2023-03-12T16:03:00;11.10;99.90
16180;DHT22;8196;49.428;10.906;2023-03-12T16:05:31;11.20;99.90
16180;DHT22;8196;49.428;10.906;2023-03-12T16:08:09;11.20;99.90
16180;DHT22;8196;49.428;10.906;2023-03-12T16:10:38;11.10;99.90
16180;DHT22;8196;49.428;10.906;2023-03-12T16:13:05;10.90;99.90
16180;DHT22;8196;49.428;10.906;2023-03-12T16:15:36;10.80;99.90
16180;DHT22;8196;49.428;10.906;2023-03-12T16:18:03;10.70;99.90
16180;DHT22;8196;49.428;10.906;2023-03-12T16:20:30;10.60;99.90
16180;DHT22;8196;49.428;10.906;2023-03-12T16:22:57;10.50;99.90
16180;DHT22;8196;49.428;10.906;2023-03-12T16:25:23;10.30;99.90
16180;DHT22;8196;49.428;10.906;2023-03-12T16:27:54;10.30;99.90
16180;DHT22;8196;49.428;10.906;2023-03-12T16:30:31;10.20;99.90
16180;DHT22;8196;49.428;10.906;2023-03-12T16:32:59;10.20;99.90
16180;DHT22;8196;49.428;10.906;2023-03-12T16:35:27;10.20;99.90
16180;DHT22;8196;49.428;10.906;2023-03-12T16:37:57;10.20;99.90
16180;DHT22;8196;49.428;10.906;2023-03-12T16:40:29;10.10;99.90
16180;DHT22;8196;49.428;10.906;2023-03-12T16:43:00;10.10;99.90
16180;DHT22;8196;49.428;10.906;2023-03-12T16:45:30;10.10;99.90
16180;DHT22;8196;49.428;10.906;2023-03-12T16:48:01;10.10;99.90
16180;DHT22;8196;49.428;10.906;2023-03-12T16:50:29;10.10;99.90
16180;DHT22;8196;49.428;10.906;2023-03-12T16:52:56;10.00;99.90
16180;DHT22;8196;49.428;10.906;2023-03-12T16:55:27;9.90;99.90
16180;DHT22;8196;49.428;10.906;2023-03-12T16:57:57;9.80;99.90
16180;DHT22;8196;49.428;10.906;2023-03-12T17:00:28;9.70;99.90
16180;DHT22;8196;49.428;10.906;2023-03-12T17:02:56;9.70;99.90
16180;DHT22;8196;49.428;10.906;2023-03-12T17:05:26;9.60;99.90
16180;DHT22;8196;49.428;10.906;2023-03-12T17:07:54;9.50;99.90
16180;DHT22;8196;49.428;10.906;2023-03-12T17:10:22;9.40;99.90
16180;DHT22;8196;49.428;10.906;2023-03-12T17:12:49;9.40;99.90
16180;DHT22;8196;49.428;10.906;2023-03-12T17:15:20;9.30;99.90
16180;DHT22;8196;49.428;10.906;2023-03-12T17:17:48;9.30;99.90
16180;DHT22;8196;49.428;10.906;2023-03-12T17:20:17;9.30;99.90
16180;DHT22;8196;49.428;10.906;2023-03-12T17:22:44;9.20;99.90
16180;DHT22;8196;49.428;10.906;2023-03-12T17:27:45;9.10;99.90
16180;DHT22;8196;49.428;10.906;2023-03-12T17:30:17;9.00;99.90
16180;DHT22;8196;49.428;10.906;2023-03-12T17:32:44;9.00;99.90
16180;DHT22;8196;49.428;10.906;2023-03-12T17:35:12;8.90;99.90
16180;DHT22;8196;49.428;10.906;2023-03-12T17:37:39;8.80;99.90
16180;DHT22;8196;49.428;10.906;2023-03-12T17:40:06;8.80;99.90
16180;DHT22;8196;49.428;10.906;2023-03-12T17:42:35;8.70;99.90
16180;DHT22;8196;49.428;10.906;2023-03-12T17:45:04;8.60;99.90